createdAt,value
2017-10-19T00:02:01.155Z,9.20
2017-10-19T00:04:29.551Z,9.20
2017-10-19T00:06:57.926Z,9.10
2017-10-19T00:09:26.314Z,9.10
2017-10-19T00:11:54.682Z,9.10
2017-10-19T00:14:23.073Z,9.10
2017-10-19T00:16:51.456Z,9.10
2017-10-19T00:19:20.631Z,8.90
2017-10-19T00:21:49.003Z,8.90
2017-10-19T00:24:17.416Z,8.90
2017-10-19T00:26:46.560Z,8.60
2017-10-19T00:29:14.934Z,8.50
2017-10-19T00:31:43.359Z,8.50
2017-10-19T00:34:11.738Z,8.30
2017-10-19T00:36:40.140Z,8.30
2017-10-19T00:39:09.330Z,8.10
2017-10-19T00:41:37.731Z,8.10
2017-10-19T00:44:06.875Z,8.00
2017-10-19T00:46:35.274Z,8.10
2017-10-19T00:49:03.655Z,8.00
2017-10-19T00:51:32.056Z,7.90
2017-10-19T00:54:01.202Z,8.30
2017-10-19T00:56:29.631Z,8.20
2017-10-19T00:58:59.516Z,8.40
2017-10-19T01:01:27.924Z,8.40
2017-10-19T01:03:57.069Z,8.50
2017-10-19T01:06:25.657Z,8.50
2017-10-19T01:08:54.031Z,8.50
2017-10-19T01:11:22.415Z,8.50
2017-10-19T01:13:50.823Z,8.60
2017-10-19T01:16:19.194Z,8.60
2017-10-19T01:18:47.856Z,8.60
2017-10-19T01:21:16.232Z,8.50
2017-10-19T01:23:44.618Z,8.50
2017-10-19T01:26:13.022Z,8.50
2017-10-19T01:28:41.400Z,8.50
2017-10-19T01:31:10.037Z,8.50
2017-10-19T01:33:38.413Z,8.50
2017-10-19T01:36:06.826Z,8.20
2017-10-19T01:38:35.223Z,8.10
2017-10-19T01:41:03.603Z,8.20
2017-10-19T01:43:32.373Z,8.20
2017-10-19T01:46:00.762Z,8.20
2017-10-19T01:48:29.149Z,8.30
2017-10-19T01:50:57.555Z,8.20
2017-10-19T01:53:25.928Z,8.20
2017-10-19T01:55:54.358Z,8.20
2017-10-19T01:58:22.739Z,8.20
2017-10-19T02:00:51.234Z,8.10
2017-10-19T02:03:19.621Z,7.90
2017-10-19T02:05:47.998Z,7.90
2017-10-19T02:08:16.534Z,7.80
2017-10-19T02:10:44.914Z,7.70
2017-10-19T02:13:13.310Z,7.60
2017-10-19T02:15:41.734Z,7.50
2017-10-19T02:18:10.890Z,7.60
2017-10-19T02:20:39.662Z,7.50
2017-10-19T02:23:08.030Z,7.50
2017-10-19T02:25:36.405Z,7.60
2017-10-19T02:28:04.802Z,7.60
2017-10-19T02:30:33.176Z,7.70
2017-10-19T02:33:01.579Z,7.80
2017-10-19T02:35:29.958Z,7.80
2017-10-19T02:37:58.810Z,7.90
2017-10-19T02:40:27.179Z,7.90
2017-10-19T02:42:55.552Z,7.90
2017-10-19T02:45:23.938Z,7.90
2017-10-19T02:47:52.305Z,7.70
2017-10-19T02:50:21.021Z,7.70
2017-10-19T02:52:49.387Z,7.70
2017-10-19T02:55:17.767Z,7.70
2017-10-19T02:57:46.339Z,7.70
2017-10-19T03:00:14.738Z,7.60
2017-10-19T03:02:43.162Z,7.60
2017-10-19T03:05:12.316Z,7.50
2017-10-19T03:07:40.796Z,7.50
2017-10-19T03:10:09.164Z,7.50
2017-10-19T03:12:37.530Z,7.60
2017-10-19T03:15:05.958Z,7.60
2017-10-19T03:17:34.338Z,7.70
2017-10-19T03:20:03.745Z,7.70
2017-10-19T03:22:32.128Z,7.60
2017-10-19T03:25:00.506Z,7.70
2017-10-19T03:27:29.678Z,7.60
2017-10-19T03:29:58.051Z,7.60
2017-10-19T03:32:26.622Z,7.60
2017-10-19T03:34:54.988Z,7.60
2017-10-19T03:37:23.363Z,7.60
2017-10-19T03:39:51.770Z,7.60
2017-10-19T03:42:20.139Z,7.50
2017-10-19T03:44:48.565Z,7.50
2017-10-19T03:47:17.702Z,7.40
2017-10-19T03:49:46.992Z,7.40
2017-10-19T03:52:15.383Z,7.30
2017-10-19T03:54:43.758Z,7.30
2017-10-19T03:57:12.360Z,7.20
2017-10-19T03:59:40.757Z,7.20
2017-10-19T04:02:09.130Z,7.20
2017-10-19T04:04:37.529Z,7.20
2017-10-19T04:07:05.908Z,7.20
2017-10-19T04:09:34.323Z,7.30
2017-10-19T04:12:02.696Z,7.10
2017-10-19T04:14:31.112Z,7.00
2017-10-19T04:16:59.508Z,6.90
2017-10-19T04:19:28.651Z,6.70
2017-10-19T04:21:57.230Z,6.70
2017-10-19T04:24:25.620Z,6.70
2017-10-19T04:26:53.990Z,6.80
2017-10-19T04:29:22.383Z,6.80
2017-10-19T04:31:50.762Z,6.80
2017-10-19T04:34:19.315Z,7.00
2017-10-19T04:36:48.450Z,7.00
2017-10-19T04:39:16.837Z,7.00
2017-10-19T04:41:45.237Z,6.90
2017-10-19T04:44:13.609Z,6.90
2017-10-19T04:46:42.124Z,6.90
2017-10-19T04:49:11.264Z,6.80
2017-10-19T04:51:39.663Z,6.80
2017-10-19T04:54:08.827Z,6.90
2017-10-19T04:56:37.296Z,6.90
2017-10-19T04:59:05.915Z,7.00
2017-10-19T05:01:34.309Z,7.10
2017-10-19T05:04:02.688Z,7.20
2017-10-19T05:06:31.083Z,7.30
2017-10-19T05:08:59.455Z,7.30
2017-10-19T05:11:27.938Z,7.30
2017-10-19T05:13:56.315Z,7.20
2017-10-19T05:16:24.691Z,7.30
2017-10-19T05:18:53.098Z,7.20
2017-10-19T05:21:22.238Z,7.20
2017-10-19T05:23:50.651Z,7.20
2017-10-19T05:26:19.036Z,7.30
2017-10-19T05:28:47.406Z,7.30
2017-10-19T05:31:16.704Z,7.20
2017-10-19T05:33:45.088Z,7.30
2017-10-19T05:36:13.495Z,7.20
2017-10-19T05:38:41.872Z,7.10
2017-10-19T05:41:11.197Z,7.20
2017-10-19T05:43:39.594Z,7.10
2017-10-19T05:46:07.973Z,7.10
2017-10-19T05:48:36.506Z,7.10
2017-10-19T05:51:05.656Z,6.90
2017-10-19T05:53:34.032Z,6.90
2017-10-19T05:56:02.449Z,7.00
2017-10-19T05:58:31.586Z,7.30
2017-10-19T06:01:00.013Z,7.30
2017-10-19T06:03:28.455Z,7.50
2017-10-19T06:05:56.832Z,7.60
2017-10-19T06:08:25.231Z,7.80
2017-10-19T06:10:53.695Z,8.00
2017-10-19T06:13:22.578Z,8.20
2017-10-19T06:15:50.950Z,7.90
2017-10-19T06:18:19.327Z,7.80
2017-10-19T06:20:47.727Z,7.80
2017-10-19T06:23:16.111Z,7.80
2017-10-19T06:25:44.678Z,7.80
2017-10-19T06:28:13.055Z,8.10
2017-10-19T06:30:41.760Z,8.80
2017-10-19T06:33:10.171Z,9.30
2017-10-19T06:35:39.313Z,9.70
2017-10-19T06:38:07.747Z,9.70
2017-10-19T06:40:36.899Z,10.70
2017-10-19T06:43:05.271Z,10.70
2017-10-19T06:45:33.671Z,11.00
2017-10-19T06:48:02.058Z,11.50
2017-10-19T06:50:30.463Z,11.90
2017-10-19T06:52:59.622Z,13.20
2017-10-19T06:55:28.043Z,13.20
2017-10-19T06:57:57.192Z,15.20
2017-10-19T07:00:24.992Z,15.20
2017-10-19T07:02:54.143Z,16.60
2017-10-19T07:05:22.561Z,16.60
2017-10-19T07:07:51.730Z,17.60
2017-10-19T07:10:20.111Z,17.50
2017-10-19T07:12:48.747Z,18.30
2017-10-19T07:15:17.141Z,18.40
2017-10-19T07:17:45.522Z,18.50
2017-10-19T07:20:13.928Z,19.10
2017-10-19T07:22:42.306Z,19.10
2017-10-19T07:25:10.984Z,19.80
2017-10-19T07:27:39.367Z,20.40
2017-10-19T07:30:07.771Z,20.80
2017-10-19T07:32:36.179Z,21.10
2017-10-19T07:35:05.331Z,21.50
2017-10-19T07:37:34.000Z,21.50
2017-10-19T07:40:02.387Z,21.70
2017-10-19T07:42:30.766Z,21.90
2017-10-19T07:44:59.173Z,22.20
2017-10-19T07:47:27.553Z,22.30
2017-10-19T07:49:56.306Z,22.00
2017-10-19T07:52:24.687Z,21.90
2017-10-19T07:54:53.075Z,22.20
2017-10-19T07:57:21.489Z,22.00
2017-10-19T07:59:50.645Z,22.50
2017-10-19T08:02:19.084Z,22.50
2017-10-19T08:04:47.460Z,22.70
2017-10-19T08:07:15.843Z,23.30
2017-10-19T08:09:44.256Z,23.70
2017-10-19T08:12:12.640Z,23.60
2017-10-19T08:14:41.307Z,24.00
2017-10-19T08:17:09.692Z,24.10
2017-10-19T08:19:38.072Z,24.00
2017-10-19T08:22:06.475Z,23.80
2017-10-19T08:24:37.256Z,23.40
2017-10-19T08:27:05.893Z,23.60
2017-10-19T08:29:36.449Z,23.50
2017-10-19T08:32:04.875Z,23.40
2017-10-19T08:34:33.275Z,24.00
2017-10-19T08:37:01.657Z,24.30
2017-10-19T08:39:30.427Z,24.30
2017-10-19T08:41:58.810Z,24.00
2017-10-19T08:44:27.198Z,24.40
2017-10-19T08:46:55.604Z,24.50
2017-10-19T08:49:27.155Z,24.90
2017-10-19T08:51:56.619Z,25.40
2017-10-19T08:54:24.999Z,25.40
2017-10-19T08:56:53.376Z,25.70
2017-10-19T08:59:22.221Z,26.10
2017-10-19T09:01:50.745Z,26.40
2017-10-19T09:04:19.261Z,26.60
2017-10-19T09:06:47.637Z,26.10
2017-10-19T09:09:16.016Z,26.10
2017-10-19T09:11:44.426Z,26.10
2017-10-19T09:14:13.580Z,26.60
2017-10-19T09:16:42.175Z,26.60
2017-10-19T09:19:10.557Z,26.80
2017-10-19T09:21:38.929Z,27.20
2017-10-19T09:24:07.323Z,27.10
2017-10-19T09:26:36.487Z,27.20
2017-10-19T09:29:05.163Z,27.20
2017-10-19T09:31:33.543Z,27.70
2017-10-19T09:34:01.936Z,28.00
2017-10-19T09:36:30.355Z,28.20
2017-10-19T09:38:59.506Z,28.80
2017-10-19T09:41:28.286Z,28.80
2017-10-19T09:43:56.675Z,28.70
2017-10-19T09:46:25.055Z,29.40
2017-10-19T09:48:53.469Z,29.20
2017-10-19T09:51:22.620Z,29.30
2017-10-19T09:53:52.961Z,29.30
2017-10-19T09:56:22.138Z,29.40
2017-10-19T09:58:50.521Z,29.40
2017-10-19T10:01:18.939Z,29.60
2017-10-19T10:03:48.098Z,29.40
2017-10-19T10:06:16.611Z,29.30
2017-10-19T10:08:45.756Z,29.70
2017-10-19T10:11:14.260Z,29.70
2017-10-19T10:13:42.659Z,29.00
2017-10-19T10:16:11.815Z,29.50
2017-10-19T10:18:40.410Z,29.40
2017-10-19T10:21:08.802Z,29.60
2017-10-19T10:23:37.263Z,29.80
2017-10-19T10:26:05.667Z,29.90
2017-10-19T10:28:34.137Z,29.70
2017-10-19T10:31:02.806Z,29.80
2017-10-19T10:33:31.184Z,29.80
2017-10-19T10:35:59.591Z,30.00
2017-10-19T10:38:27.992Z,30.50
2017-10-19T10:40:57.137Z,30.50
2017-10-19T10:43:25.725Z,30.50
2017-10-19T10:45:54.096Z,30.60
2017-10-19T10:48:22.476Z,30.50
2017-10-19T10:50:50.874Z,30.50
2017-10-19T10:53:19.258Z,30.50
2017-10-19T10:55:48.023Z,30.60
2017-10-19T10:58:16.433Z,30.40
2017-10-19T11:00:47.213Z,30.30
2017-10-19T11:03:15.644Z,30.40
2017-10-19T11:05:46.588Z,30.40
2017-10-19T11:08:15.039Z,30.50
2017-10-19T11:10:43.443Z,30.50
2017-10-19T11:13:11.819Z,30.40
2017-10-19T11:15:40.223Z,30.30
2017-10-19T11:18:09.371Z,30.70
2017-10-19T11:20:37.891Z,30.70
2017-10-19T11:23:06.266Z,30.90
2017-10-19T11:25:34.638Z,30.80
2017-10-19T11:28:03.044Z,30.80
2017-10-19T11:30:32.211Z,30.70
2017-10-19T11:33:02.373Z,30.70
2017-10-19T11:35:30.759Z,30.90
2017-10-19T11:37:59.146Z,31.30
2017-10-19T11:40:27.542Z,31.20
2017-10-19T11:42:55.930Z,31.30
2017-10-19T11:45:24.795Z,31.20
2017-10-19T11:47:53.187Z,31.20
2017-10-19T11:50:21.559Z,30.90
2017-10-19T11:52:49.971Z,31.10
2017-10-19T11:55:18.351Z,30.80
2017-10-19T11:57:46.902Z,31.20
2017-10-19T12:00:15.292Z,31.20
2017-10-19T12:02:43.671Z,31.00
2017-10-19T12:05:12.103Z,31.00
2017-10-19T12:07:40.479Z,30.70
2017-10-19T12:10:09.203Z,30.40
2017-10-19T12:12:37.582Z,30.20
2017-10-19T12:15:05.959Z,29.90
2017-10-19T12:17:34.354Z,29.70
2017-10-19T12:20:02.734Z,29.60
2017-10-19T12:22:31.402Z,29.30
2017-10-19T12:24:59.768Z,28.90
2017-10-19T12:27:28.147Z,28.70
2017-10-19T12:29:56.559Z,28.90
2017-10-19T12:32:24.936Z,28.70
2017-10-19T12:34:53.619Z,28.80
2017-10-19T12:37:21.999Z,28.90
2017-10-19T12:39:50.387Z,29.00
2017-10-19T12:42:18.805Z,29.20
2017-10-19T12:44:47.178Z,29.00
2017-10-19T12:47:15.604Z,28.90
2017-10-19T12:49:43.977Z,28.60
2017-10-19T12:52:12.367Z,28.50
2017-10-19T12:54:40.772Z,28.60
2017-10-19T12:57:09.914Z,28.40
2017-10-19T12:59:38.382Z,28.30
2017-10-19T13:02:06.786Z,28.50
2017-10-19T13:04:35.167Z,28.30
2017-10-19T13:07:03.571Z,28.10
2017-10-19T13:09:31.949Z,28.20
2017-10-19T13:12:00.606Z,28.20
2017-10-19T13:14:28.982Z,28.10
2017-10-19T13:16:57.362Z,27.80
2017-10-19T13:19:25.763Z,27.70
2017-10-19T13:21:54.222Z,27.40
2017-10-19T13:24:22.663Z,27.10
2017-10-19T13:26:51.058Z,26.90
2017-10-19T13:29:19.437Z,27.00
2017-10-19T13:31:47.896Z,26.80
2017-10-19T13:34:17.036Z,25.80
2017-10-19T13:36:45.514Z,25.70
2017-10-19T13:39:13.895Z,25.20
2017-10-19T13:41:42.332Z,24.80
2017-10-19T13:44:11.496Z,24.60
2017-10-19T13:46:39.868Z,24.50
2017-10-19T13:49:08.314Z,24.40
2017-10-19T13:51:36.726Z,24.10
2017-10-19T13:54:05.124Z,23.80
2017-10-19T13:56:34.292Z,23.50
2017-10-19T13:59:02.679Z,23.50
2017-10-19T14:01:31.242Z,23.30
2017-10-19T14:03:59.620Z,23.10
2017-10-19T14:06:27.999Z,22.90
2017-10-19T14:08:56.420Z,22.80
2017-10-19T14:11:25.568Z,22.50
2017-10-19T14:13:53.983Z,22.50
2017-10-19T14:16:22.385Z,22.30
2017-10-19T14:18:51.575Z,22.20
2017-10-19T14:21:20.727Z,22.10
2017-10-19T14:23:49.139Z,22.10
2017-10-19T14:26:17.574Z,22.10
2017-10-19T14:28:45.987Z,22.00
2017-10-19T14:31:14.386Z,21.90
2017-10-19T14:33:43.564Z,21.70
2017-10-19T14:36:11.961Z,21.70
2017-10-19T14:38:41.164Z,21.50
2017-10-19T14:41:10.316Z,21.50
2017-10-19T14:43:39.001Z,21.50
2017-10-19T14:46:07.403Z,21.50
2017-10-19T14:48:35.823Z,21.40
2017-10-19T14:51:04.230Z,21.40
2017-10-19T14:53:32.623Z,21.40
2017-10-19T14:56:01.044Z,21.50
2017-10-19T14:58:30.296Z,21.40
2017-10-19T15:00:58.695Z,21.40
2017-10-19T15:03:27.076Z,21.20
2017-10-19T15:05:55.489Z,21.10
2017-10-19T15:08:23.884Z,21.00
2017-10-19T15:10:52.292Z,21.10
2017-10-19T15:13:20.670Z,21.00
2017-10-19T15:15:49.074Z,21.00
2017-10-19T15:18:17.459Z,21.00
2017-10-19T15:20:46.827Z,21.00
2017-10-19T15:23:15.228Z,21.00
2017-10-19T15:25:43.611Z,21.00
2017-10-19T15:28:12.729Z,21.00
2017-10-19T15:30:41.136Z,20.90
2017-10-19T15:33:09.952Z,20.90
2017-10-19T15:35:38.343Z,20.90
2017-10-19T15:38:06.740Z,20.90
2017-10-19T15:40:35.911Z,20.70
2017-10-19T15:43:04.414Z,20.60
2017-10-19T15:48:21.056Z,20.40
2017-10-19T15:51:07.708Z,20.20
2017-10-19T15:53:36.104Z,20.00
2017-10-19T15:56:04.523Z,19.80
2017-10-19T15:58:32.945Z,19.60
2017-10-19T16:04:11.984Z,19.00
2017-10-19T16:06:40.584Z,19.00
2017-10-19T16:22:13.437Z,18.00
2017-10-19T16:24:42.239Z,18.00
2017-10-19T16:27:11.407Z,17.90
2017-10-19T16:29:41.233Z,17.80
2017-10-19T16:32:10.963Z,17.70
2017-10-19T16:34:41.139Z,17.60
2017-10-19T16:37:11.988Z,17.50
2017-10-19T16:39:41.344Z,17.50
2017-10-19T16:42:11.455Z,17.40
2017-10-19T16:44:41.816Z,17.20
2017-10-19T16:47:11.908Z,17.20
2017-10-19T16:49:41.097Z,16.90
2017-10-19T16:52:10.909Z,16.90
2017-10-19T16:54:40.794Z,16.90
2017-10-19T16:57:10.850Z,16.90
2017-10-19T16:59:41.058Z,16.80
2017-10-19T17:02:10.336Z,16.70
2017-10-19T17:04:38.791Z,16.70
2017-10-19T17:07:07.193Z,16.60
2017-10-19T17:09:35.591Z,16.50
2017-10-19T17:12:04.770Z,16.40
2017-10-19T17:14:33.162Z,16.40
2017-10-19T17:17:07.224Z,16.30
2017-10-19T17:19:35.619Z,16.20
2017-10-19T17:22:05.353Z,16.10
2017-10-19T17:24:42.337Z,16.00
2017-10-19T17:27:21.570Z,15.90
2017-10-19T17:30:01.123Z,15.80
2017-10-19T17:32:37.946Z,15.80
2017-10-19T17:35:11.935Z,15.80
2017-10-19T17:37:48.113Z,15.80
2017-10-19T17:40:22.925Z,15.60
2017-10-19T17:42:59.884Z,15.60
2017-10-19T17:45:36.497Z,15.50
2017-10-19T17:48:12.732Z,15.50
2017-10-19T17:50:47.667Z,15.50
2017-10-19T17:53:22.548Z,15.40
2017-10-19T17:55:59.538Z,15.30
2017-10-19T17:58:32.225Z,15.20
2017-10-19T18:01:09.111Z,15.20
2017-10-19T18:03:44.158Z,15.10
2017-10-19T18:06:20.621Z,15.10
2017-10-19T18:08:50.951Z,15.00
2017-10-19T18:11:25.556Z,15.00
2017-10-19T18:14:00.263Z,14.90
2017-10-19T18:16:30.114Z,14.90
2017-10-19T18:19:05.088Z,14.90
2017-10-19T18:21:40.399Z,14.80
2017-10-19T18:24:19.100Z,14.80
2017-10-19T18:27:06.839Z,14.80
2017-10-19T18:29:50.080Z,14.70
2017-10-19T18:32:23.965Z,14.50
2017-10-19T18:34:53.742Z,14.50
2017-10-19T18:37:24.182Z,14.50
2017-10-19T18:39:58.993Z,14.40
2017-10-19T18:42:32.610Z,14.40
2017-10-19T18:45:20.809Z,14.30
2017-10-19T18:48:02.879Z,14.30
2017-10-19T18:50:39.587Z,14.30
2017-10-19T18:53:09.518Z,14.20
2017-10-19T18:55:39.848Z,14.20
2017-10-19T18:58:11.208Z,14.10
2017-10-19T19:00:41.224Z,14.10
2017-10-19T19:06:31.888Z,14.00
2017-10-19T19:09:01.590Z,14.00
2017-10-19T19:11:30.130Z,14.00
2017-10-19T19:13:58.534Z,13.90
2017-10-19T19:16:27.621Z,13.90
2017-10-19T19:18:56.097Z,13.80
2017-10-19T19:21:24.726Z,13.70
2017-10-19T19:23:53.155Z,13.60
2017-10-19T19:26:21.595Z,13.60
2017-10-19T19:28:50.746Z,13.50
2017-10-19T19:31:20.559Z,13.50
2017-10-19T19:33:49.703Z,13.50
2017-10-19T19:36:45.489Z,13.40
2017-10-19T19:39:15.739Z,13.40
2017-10-19T19:41:49.222Z,13.30
2017-10-19T19:44:23.072Z,13.30
2017-10-19T19:46:55.433Z,13.30
2017-10-19T19:49:35.954Z,13.20
2017-10-19T19:52:06.569Z,13.20
2017-10-19T19:57:32.271Z,13.20
2017-10-19T20:00:05.558Z,13.20
2017-10-19T20:02:41.152Z,13.10
2017-10-19T20:05:18.579Z,13.10
2017-10-19T20:07:50.385Z,13.10
2017-10-19T20:10:19.360Z,13.20
2017-10-19T20:12:57.670Z,13.10
2017-10-19T20:15:28.185Z,13.00
2017-10-19T20:17:58.188Z,13.00
2017-10-19T20:20:29.737Z,13.00
2017-10-19T20:22:59.286Z,12.90
2017-10-19T20:25:33.609Z,12.90
2017-10-19T20:28:14.066Z,12.90
2017-10-19T20:30:42.541Z,12.80
2017-10-19T20:33:10.924Z,12.60
2017-10-19T20:35:39.348Z,12.50
2017-10-19T20:38:08.490Z,12.60
2017-10-19T20:40:37.901Z,12.50
2017-10-19T20:43:06.676Z,12.60
2017-10-19T20:45:35.063Z,12.60
2017-10-19T20:48:03.508Z,12.50
2017-10-19T20:50:33.225Z,12.50
2017-10-19T20:53:03.235Z,12.50
2017-10-19T20:55:31.817Z,12.50
2017-10-19T20:58:00.262Z,12.40
2017-10-19T21:00:28.692Z,12.40
2017-10-19T21:02:57.083Z,12.40
2017-10-19T21:05:34.498Z,12.40
2017-10-19T21:08:04.844Z,12.40
2017-10-19T21:10:33.957Z,12.30
2017-10-19T21:13:03.256Z,12.30
2017-10-19T21:18:43.787Z,12.30
2017-10-19T21:21:12.579Z,12.30
2017-10-19T21:26:37.593Z,12.20
2017-10-19T21:54:18.899Z,12.10
2017-10-19T22:03:21.142Z,11.90
2017-10-19T22:05:56.176Z,11.80
2017-10-19T22:08:27.131Z,11.80
2017-10-19T22:11:27.926Z,11.80
2017-10-19T22:20:19.820Z,11.70
2017-10-19T22:22:53.575Z,11.60
2017-10-19T22:28:50.091Z,11.50
2017-10-19T22:31:39.178Z,11.40
2017-10-19T22:44:13.515Z,11.40
2017-10-19T22:56:25.629Z,11.30
2017-10-19T22:59:05.686Z,11.20
2017-10-19T23:07:55.884Z,11.20
2017-10-19T23:10:24.259Z,11.10
2017-10-19T23:12:52.640Z,11.10
2017-10-19T23:15:21.048Z,11.00
2017-10-19T23:17:49.437Z,11.00
2017-10-19T23:20:18.796Z,11.00
2017-10-19T23:22:47.184Z,11.00
2017-10-19T23:25:15.653Z,11.00
2017-10-19T23:27:44.059Z,11.00
2017-10-19T23:30:12.440Z,11.00
2017-10-19T23:32:40.995Z,11.00
2017-10-19T23:35:09.380Z,10.90
2017-10-19T23:37:37.763Z,10.90
2017-10-19T23:40:06.172Z,10.90
2017-10-19T23:42:35.320Z,10.80
2017-10-19T23:45:03.907Z,10.80
2017-10-19T23:47:32.292Z,10.80
2017-10-19T23:50:00.679Z,10.70
2017-10-19T23:52:29.083Z,10.70
2017-10-19T23:54:57.466Z,10.70
2017-10-19T23:57:26.819Z,10.70
2017-10-19T23:59:55.192Z,10.70
